Time;durP1;ratioP1;P1;durP2;ratioP2;P2;SDS_P1;SDS_P2;PMS_P1;PMS_P2;Temp;Humidity;BMP_temperature;BMP_pressure;BME280_temperature;BME280_humidity;BME280_pressure;Samples;Min_cycle;Max_cycle;Signal;HPM_P1;HPM_P2
2023/05/16 00:00:14;;;;;;;9.75;2.53;;;11.00;99.90;;;;;;6240863;23;20071;-71
2023/05/16 00:02:40;;;;;;;5.75;1.58;;;11.00;99.90;;;;;;6240351;23;20009;-71
2023/05/16 00:05:15;;;;;;;16.42;2.45;;;11.00;99.90;;;;;;6240858;23;20027;-71
2023/05/16 00:07:46;;;;;;;16.27;2.85;;;11.00;99.90;;;;;;6241031;23;20001;-71
2023/05/16 00:10:12;;;;;;;11.55;2.88;;;10.90;99.90;;;;;;6240524;23;20032;-71
2023/05/16 00:12:38;;;;;;;14.80;2.80;;;11.00;99.90;;;;;;6240838;23;20000;-71
2023/05/16 00:15:11;;;;;;;13.75;1.92;;;10.90;99.90;;;;;;6213568;23;20015;-71
2023/05/16 00:17:37;;;;;;;12.00;2.00;;;10.90;99.90;;;;;;6240553;23;20003;-70
2023/05/16 00:20:09;;;;;;;11.15;2.35;;;10.80;99.90;;;;;;6240449;23;20000;-71
2023/05/16 00:22:36;;;;;;;13.02;2.88;;;10.80;99.90;;;;;;6213905;23;20008;-71
2023/05/16 00:25:02;;;;;;;12.63;2.47;;;10.80;99.90;;;;;;6240273;23;20012;-71
2023/05/16 00:27:28;;;;;;;9.75;2.95;;;10.80;99.90;;;;;;6240750;23;20069;-71
2023/05/16 00:29:54;;;;;;;11.93;2.33;;;10.70;99.90;;;;;;6240437;23;20079;-71
2023/05/16 00:32:20;;;;;;;16.50;2.30;;;10.70;99.90;;;;;;6240148;23;19996;-71
2023/05/16 00:34:45;;;;;;;13.57;2.95;;;10.70;99.90;;;;;;6240278;23;20011;-71
2023/05/16 00:37:12;;;;;;;18.58;3.05;;;10.60;99.90;;;;;;6240441;23;20008;-71
2023/05/16 00:39:37;;;;;;;12.02;2.08;;;10.50;99.90;;;;;;6215416;23;20012;-71
2023/05/16 00:42:03;;;;;;;11.00;2.00;;;10.50;99.90;;;;;;6242230;23;20130;-71
2023/05/16 00:44:29;;;;;;;14.75;1.98;;;10.50;99.90;;;;;;6242106;23;20012;-71
2023/05/16 00:46:55;;;;;;;15.85;2.80;;;10.50;99.90;;;;;;6241899;23;20011;-71
2023/05/16 00:49:21;;;;;;;12.18;1.98;;;10.40;99.90;;;;;;6242179;23;19996;-71
2023/05/16 00:51:47;;;;;;;11.95;1.98;;;10.40;99.90;;;;;;6242758;23;20027;-71
2023/05/16 00:54:12;;;;;;;16.52;2.15;;;10.30;99.90;;;;;;6241652;23;20006;-70
2023/05/16 00:56:38;;;;;;;7.10;1.45;;;10.30;99.90;;;;;;6242794;23;20008;-71
2023/05/16 00:59:04;;;;;;;11.60;2.42;;;10.30;99.90;;;;;;6241908;23;20035;-71
2023/05/16 01:01:31;;;;;;;14.82;1.95;;;10.20;99.90;;;;;;6242349;23;20030;-71
2023/05/16 01:03:57;;;;;;;12.05;1.75;;;10.10;99.90;;;;;;6242119;23;20004;-71
2023/05/16 01:06:22;;;;;;;16.48;2.35;;;10.10;99.90;;;;;;6241977;23;20034;-71
2023/05/16 01:08:48;;;;;;;11.13;1.52;;;10.10;99.90;;;;;;6242502;23;20054;-71
2023/05/16 01:11:49;;;;;;;7.80;1.70;;;10.00;99.90;;;;;;6214707;23;20004;-71
2023/05/16 01:14:51;;;;;;;12.77;1.60;;;10.00;99.90;;;;;;6241168;23;20001;-71
2023/05/16 01:17:28;;;;;;;9.10;1.65;;;10.00;99.90;;;;;;6214478;23;20075;-70
2023/05/16 01:20:26;;;;;;;11.18;2.35;;;9.90;99.90;;;;;;6242232;23;20004;-71
2023/05/16 01:23:03;;;;;;;13.07;2.05;;;9.90;99.90;;;;;;6242245;23;20003;-71
2023/05/16 01:25:47;;;;;;;12.82;2.67;;;9.80;99.90;;;;;;6241641;23;20084;-71
2023/05/16 01:28:15;;;;;;;11.05;1.92;;;9.80;99.90;;;;;;6214180;23;20050;-71
2023/05/16 01:30:41;;;;;;;17.73;2.55;;;9.70;99.90;;;;;;6242097;23;20000;-71
2023/05/16 01:33:07;;;;;;;10.55;1.75;;;9.70;99.90;;;;;;6242047;23;20048;-71
2023/05/16 01:35:53;;;;;;;8.27;1.40;;;9.70;99.90;;;;;;6241352;23;20011;-70
2023/05/16 01:38:26;;;;;;;12.05;1.63;;;9.60;99.90;;;;;;6190311;23;20016;-71
2023/05/16 01:40:58;;;;;;;12.68;1.60;;;9.60;99.90;;;;;;6242158;23;20020;-71
2023/05/16 01:43:34;;;;;;;12.05;2.05;;;9.60;99.90;;;;;;6214475;23;20058;-71
2023/05/16 01:46:09;;;;;;;12.23;1.58;;;9.50;99.90;;;;;;6215106;23;20000;-71
2023/05/16 01:48:43;;;;;;;9.40;1.60;;;9.50;99.90;;;;;;6214559;23;20377;-71
2023/05/16 01:51:09;;;;;;;;;;;9.40;99.90;;;;;;6242184;23;20071;-71
2023/05/16 01:53:38;;;;;;;16.02;1.55;;;9.40;99.90;;;;;;6241719;23;19990;-70
2023/05/16 01:56:09;;;;;;;10.95;2.00;;;9.30;99.90;;;;;;6241568;23;20327;-71
2023/05/16 01:58:36;;;;;;;10.60;1.52;;;9.30;99.90;;;;;;6240978;23;20014;-71
2023/05/16 02:01:03;;;;;;;9.07;1.40;;;9.30;99.90;;;;;;6241739;23;20000;-71
2023/05/16 02:03:32;;;;;;;7.97;1.50;;;9.20;99.90;;;;;;6241377;23;20363;-71
2023/05/16 02:05:58;;;;;;;12.70;2.13;;;9.20;99.90;;;;;;6241646;23;20001;-71
2023/05/16 02:08:25;;;;;;;12.35;1.92;;;9.20;99.90;;;;;;6241205;23;20023;-71
2023/05/16 02:10:51;;;;;;;9.77;2.63;;;9.10;99.90;;;;;;6242058;23;20333;-71
2023/05/16 02:13:17;;;;;;;9.73;2.20;;;9.10;99.90;;;;;;6240485;23;20000;-71
2023/05/16 02:15:43;;;;;;;15.75;1.90;;;9.10;99.90;;;;;;6241908;23;20511;-71
2023/05/16 02:18:08;;;;;;;8.07;1.20;;;9.00;99.90;;;;;;6214295;23;20004;-71
2023/05/16 02:20:34;;;;;;;12.00;2.88;;;9.00;99.90;;;;;;6241752;23;20595;-71
2023/05/16 02:23:02;;;;;;;11.60;2.10;;;9.00;99.90;;;;;;6214157;23;20438;-71
2023/05/16 02:25:27;;;;;;;14.32;1.90;;;9.00;99.90;;;;;;6241326;23;20016;-71
2023/05/16 02:27:53;;;;;;;9.43;1.38;;;9.00;99.90;;;;;;6240348;23;20015;-71
2023/05/16 02:30:19;;;;;;;13.50;2.53;;;9.00;99.90;;;;;;6241327;23;20085;-71
2023/05/16 02:32:45;;;;;;;11.65;3.08;;;9.00;99.90;;;;;;6241452;23;20477;-70
2023/05/16 02:35:11;;;;;;;10.75;2.35;;;9.00;99.90;;;;;;6213932;23;20027;-71
2023/05/16 02:37:37;;;;;;;15.18;2.25;;;9.00;99.90;;;;;;6241359;23;20000;-71
2023/05/16 02:40:06;;;;;;;11.75;2.30;;;9.00;99.90;;;;;;6241084;23;20095;-71
2023/05/16 02:42:32;;;;;;;10.43;1.60;;;9.00;99.90;;;;;;6214156;23;19997;-71
2023/05/16 02:44:57;;;;;;;11.13;1.90;;;9.00;99.90;;;;;;6241012;23;20019;-71
2023/05/16 02:47:23;;;;;;;10.70;1.73;;;9.00;99.90;;;;;;6241392;23;20422;-72
2023/05/16 02:49:51;;;;;;;13.20;3.15;;;9.00;99.90;;;;;;6241210;23;20079;-70
2023/05/16 02:52:17;;;;;;;11.70;1.67;;;9.00;99.90;;;;;;6240984;23;20079;-70
2023/05/16 02:54:42;;;;;;;14.10;2.25;;;9.00;99.90;;;;;;6241130;23;20079;-71
2023/05/16 02:57:08;;;;;;;18.23;3.53;;;9.00;99.90;;;;;;6213586;23;20054;-71
2023/05/16 02:59:35;;;;;;;13.90;1.88;;;9.00;99.90;;;;;;6240821;23;20071;-71
2023/05/16 03:02:00;;;;;;;13.17;1.67;;;9.00;99.90;;;;;;6241116;23;20402;-71
2023/05/16 03:04:26;;;;;;;13.27;1.60;;;9.00;99.90;;;;;;6240629;23;20030;-71
2023/05/16 03:06:51;;;;;;;10.53;1.50;;;9.00;99.90;;;;;;6241354;23;20011;-71
2023/05/16 03:09:18;;;;;;;10.90;1.67;;;9.00;99.90;;;;;;6239421;23;20004;-71
2023/05/16 03:11:44;;;;;;;14.50;1.90;;;9.00;99.90;;;;;;6211650;23;20452;-71
2023/05/16 03:14:11;;;;;;;15.63;2.37;;;9.00;99.90;;;;;;6240329;23;20087;-71
2023/05/16 03:16:37;;;;;;;6.75;1.63;;;9.00;99.90;;;;;;6241322;23;20051;-71
2023/05/16 03:19:03;;;;;;;10.38;1.70;;;9.10;99.90;;;;;;6239619;23;20334;-71
2023/05/16 03:21:29;;;;;;;11.95;2.70;;;9.10;99.90;;;;;;6239691;23;20075;-71
2023/05/16 03:23:54;;;;;;;11.07;2.08;;;9.10;99.90;;;;;;6240890;23;20035;-71
2023/05/16 03:26:21;;;;;;;14.55;1.73;;;9.10;99.90;;;;;;6239620;23;20008;-71
2023/05/16 03:28:47;;;;;;;14.05;1.70;;;9.10;99.90;;;;;;6241350;23;20433;-71
2023/05/16 03:31:12;;;;;;;6.85;2.10;;;9.00;99.90;;;;;;6240398;23;20004;-71
2023/05/16 03:33:38;;;;;;;8.13;1.60;;;9.00;99.90;;;;;;6241120;23;20075;-71
2023/05/16 03:36:04;;;;;;;14.53;2.20;;;9.00;99.90;;;;;;6240573;23;20024;-71
2023/05/16 03:38:29;;;;;;;13.68;2.08;;;9.00;99.90;;;;;;6214003;23;19997;-72
2023/05/16 03:40:55;;;;;;;11.75;1.48;;;9.10;99.90;;;;;;6240119;23;20015;-71
2023/05/16 03:43:21;;;;;;;12.20;1.45;;;9.10;99.90;;;;;;6240753;23;20651;-71
2023/05/16 03:45:46;;;;;;;6.38;1.55;;;9.10;99.90;;;;;;6213924;23;20055;-72
2023/05/16 03:48:12;;;;;;;13.30;1.80;;;9.10;99.90;;;;;;6213795;23;20012;-72
2023/05/16 03:50:38;;;;;;;19.13;2.10;;;9.10;99.90;;;;;;6240939;23;20018;-72
2023/05/16 03:53:04;;;;;;;12.60;2.40;;;9.10;99.90;;;;;;6240837;23;20005;-71
2023/05/16 03:55:30;;;;;;;12.88;2.40;;;9.10;99.90;;;;;;6240507;23;20066;-71
2023/05/16 03:57:55;;;;;;;10.57;2.13;;;9.10;99.90;;;;;;6214199;23;20012;-72
2023/05/16 04:00:21;;;;;;;9.95;1.50;;;9.20;99.90;;;;;;6240360;23;20071;-71
2023/05/16 04:02:47;;;;;;;11.45;1.65;;;9.30;99.90;;;;;;6241036;23;20318;-71
2023/05/16 04:05:12;;;;;;;13.23;2.72;;;9.30;99.90;;;;;;6240145;23;20010;-72
2023/05/16 04:07:39;;;;;;;15.43;2.20;;;9.40;99.90;;;;;;6240589;23;20403;-72
2023/05/16 04:10:05;;;;;;;8.07;1.75;;;9.50;99.90;;;;;;6240426;23;20040;-71
2023/05/16 04:12:31;;;;;;;8.40;2.42;;;9.50;99.90;;;;;;6241028;23;20517;-71
2023/05/16 04:14:57;;;;;;;10.70;2.30;;;9.60;99.90;;;;;;6242458;23;20036;-72
2023/05/16 04:17:22;;;;;;;14.93;1.85;;;9.60;99.90;;;;;;6242793;23;20035;-72
2023/05/16 04:19:48;;;;;;;8.77;2.17;;;9.60;99.90;;;;;;6215730;23;20418;-71
2023/05/16 04:22:13;;;;;;;16.95;3.05;;;9.60;99.90;;;;;;6241520;23;20000;-71
2023/05/16 04:24:39;;;;;;;7.57;1.48;;;9.70;99.90;;;;;;6242638;23;20066;-71
2023/05/16 04:27:07;;;;;;;8.38;1.60;;;9.70;99.90;;;;;;6242409;23;20003;-71
2023/05/16 04:29:34;;;;;;;10.15;2.00;;;9.60;99.90;;;;;;6242541;23;20004;-71
2023/05/16 04:31:59;;;;;;;11.63;2.60;;;9.60;99.90;;;;;;6242567;23;20075;-71
2023/05/16 04:34:26;;;;;;;8.25;1.80;;;9.60;99.90;;;;;;6241455;23;20461;-72
2023/05/16 04:36:55;;;;;;;13.25;1.42;;;9.60;99.90;;;;;;6242267;23;20003;-71
2023/05/16 04:39:21;;;;;;;14.82;2.03;;;9.50;99.90;;;;;;6242383;23;20072;-71
2023/05/16 04:41:46;;;;;;;9.80;2.40;;;9.50;99.90;;;;;;6242401;23;20379;-71
2023/05/16 04:44:12;;;;;;;11.10;1.83;;;9.50;99.90;;;;;;6242103;23;20422;-72
2023/05/16 04:46:38;;;;;;;12.85;2.05;;;9.50;99.90;;;;;;6242527;23;20005;-72
2023/05/16 04:49:03;;;;;;;13.30;2.88;;;9.50;99.90;;;;;;6242331;23;20071;-71
2023/05/16 04:51:29;;;;;;;9.48;2.33;;;9.60;99.90;;;;;;6241138;23;20127;-71
2023/05/16 04:53:55;;;;;;;13.30;1.95;;;9.60;99.90;;;;;;6242524;23;20023;-71
2023/05/16 04:56:21;;;;;;;6.03;1.63;;;9.60;99.90;;;;;;6214627;23;19997;-71
2023/05/16 04:58:47;;;;;;;11.18;1.95;;;9.50;99.90;;;;;;6242670;23;20394;-71
2023/05/16 05:01:12;;;;;;;20.52;2.58;;;9.50;99.90;;;;;;6241459;23;19996;-72
2023/05/16 05:03:38;;;;;;;12.88;2.88;;;9.50;99.90;;;;;;6242661;23;19996;-72
2023/05/16 05:06:03;;;;;;;15.25;3.05;;;9.50;99.90;;;;;;6241322;23;20010;-72
2023/05/16 05:08:29;;;;;;;10.02;2.13;;;9.50;99.90;;;;;;6242294;23;20010;-71
2023/05/16 05:10:55;;;;;;;11.27;2.53;;;9.40;99.90;;;;;;6242215;23;20026;-72
2023/05/16 05:13:21;;;;;;;14.65;2.78;;;9.40;99.90;;;;;;6241787;23;20027;-72
2023/05/16 05:15:51;;;;;;;11.75;2.25;;;9.40;99.90;;;;;;6242207;23;20077;-72
2023/05/16 05:18:17;;;;;;;11.75;3.05;;;9.50;99.90;;;;;;6241982;23;20307;-72
2023/05/16 05:20:42;;;;;;;13.52;2.28;;;9.40;99.90;;;;;;6215074;23;20004;-72
2023/05/16 05:23:08;;;;;;;16.83;2.78;;;9.50;99.90;;;;;;6241317;23;20486;-72
2023/05/16 05:25:35;;;;;;;12.90;2.30;;;9.50;99.90;;;;;;6241550;23;20020;-72
2023/05/16 05:28:01;;;;;;;9.73;1.70;;;9.60;99.90;;;;;;6215458;23;20004;-73
2023/05/16 05:30:27;;;;;;;8.65;2.65;;;9.70;99.90;;;;;;6241491;23;19996;-72
2023/05/16 05:32:53;;;;;;;14.95;2.78;;;9.90;99.90;;;;;;6242174;23;20318;-72
2023/05/16 05:35:19;;;;;;;13.05;3.15;;;9.90;99.90;;;;;;6240962;23;20065;-72
2023/05/16 05:37:45;;;;;;;13.43;1.67;;;10.00;99.90;;;;;;6242076;23;20086;-72
2023/05/16 05:40:11;;;;;;;12.80;1.88;;;10.10;99.90;;;;;;6241815;23;20107;-72
2023/05/16 05:42:36;;;;;;;10.45;1.80;;;10.20;99.90;;;;;;6214564;23;20077;-72
2023/05/16 05:45:02;;;;;;;16.45;2.25;;;10.20;99.90;;;;;;6215275;23;20295;-72
2023/05/16 05:47:28;;;;;;;8.85;2.45;;;10.20;99.90;;;;;;6241497;23;20000;-72
2023/05/16 05:49:54;;;;;;;14.65;2.50;;;10.20;99.90;;;;;;6241689;23;20398;-72
2023/05/16 05:52:20;;;;;;;9.63;2.42;;;10.20;99.90;;;;;;6240803;23;20004;-72
2023/05/16 05:54:47;;;;;;;10.18;2.17;;;10.20;99.90;;;;;;6241871;23;20031;-72
2023/05/16 05:57:12;;;;;;;9.68;2.05;;;10.30;99.90;;;;;;6214381;23;20004;-72
2023/05/16 05:59:38;;;;;;;15.13;2.88;;;10.30;99.90;;;;;;6241951;23;20071;-70
2023/05/16 06:02:04;;;;;;;11.60;1.60;;;10.30;99.90;;;;;;6241632;23;20333;-72
2023/05/16 06:04:30;;;;;;;15.10;2.83;;;10.20;99.90;;;;;;6240689;23;20481;-71
2023/05/16 06:06:55;;;;;;;6.05;1.90;;;10.20;99.90;;;;;;6241581;23;20016;-71
2023/05/16 06:09:21;;;;;;;8.75;2.08;;;10.20;99.90;;;;;;6241727;23;20007;-71
2023/05/16 06:11:46;;;;;;;9.38;2.25;;;10.20;99.90;;;;;;6241493;23;20000;-71
2023/05/16 06:14:13;;;;;;;13.68;2.15;;;10.20;99.90;;;;;;6214648;23;20093;-71
2023/05/16 06:16:39;;;;;;;13.60;2.80;;;10.20;99.90;;;;;;6241839;23;19996;-71
2023/05/16 06:19:04;;;;;;;9.55;2.55;;;10.20;99.90;;;;;;6241105;23;20007;-71
2023/05/16 06:21:31;;;;;;;8.55;2.35;;;10.20;99.90;;;;;;6241221;23;20012;-70
2023/05/16 06:23:56;;;;;;;10.27;1.85;;;10.30;99.90;;;;;;6214048;23;20084;-71
2023/05/16 06:26:22;;;;;;;10.77;1.80;;;10.30;99.90;;;;;;6241184;23;20083;-70
2023/05/16 06:28:47;;;;;;;9.98;2.08;;;10.40;99.90;;;;;;6241386;23;20418;-72
2023/05/16 06:31:13;;;;;;;14.60;1.90;;;10.40;99.90;;;;;;6240897;23;20063;-71
2023/05/16 06:33:38;;;;;;;10.75;1.45;;;10.50;99.90;;;;;;6240836;23;20097;-72
2023/05/16 06:36:04;;;;;;;9.45;1.63;;;10.50;99.90;;;;;;6241290;23;20074;-76
2023/05/16 06:38:30;;;;;;;8.38;1.58;;;10.60;99.90;;;;;;6240625;23;20519;-77
2023/05/16 06:40:55;;;;;;;9.70;1.55;;;10.70;99.90;;;;;;6241183;23;20000;-76
2023/05/16 06:43:21;;;;;;;8.68;1.77;;;10.70;99.90;;;;;;6213061;23;20030;-76
2023/05/16 06:45:46;;;;;;;10.32;1.45;;;10.80;99.90;;;;;;6240500;23;20000;-77
2023/05/16 06:48:16;;;;;;;14.77;2.70;;;10.90;99.90;;;;;;6213127;23;20083;-76
2023/05/16 06:50:42;;;;;;;10.90;1.55;;;11.00;99.90;;;;;;6213836;23;20007;-76
2023/05/16 06:53:08;;;;;;;9.65;1.60;;;11.00;99.90;;;;;;6241017;23;20271;-77
2023/05/16 06:55:33;;;;;;;11.27;1.55;;;11.20;99.90;;;;;;6240879;23;20088;-76
2023/05/16 06:57:59;;;;;;;10.50;1.98;;;11.30;99.90;;;;;;6240982;23;20004;-76
2023/05/16 07:00:25;;;;;;;8.02;1.70;;;11.40;99.90;;;;;;6213816;23;20039;-76
2023/05/16 07:02:50;;;;;;;6.70;1.77;;;11.70;99.90;;;;;;6213790;23;20000;-76
2023/05/16 07:05:16;;;;;;;8.02;1.20;;;11.90;99.90;;;;;;6213784;23;20023;-76
2023/05/16 07:07:42;;;;;;;5.35;0.90;;;12.00;99.90;;;;;;6214070;23;20014;-76
2023/05/16 07:10:07;;;;;;;8.45;1.23;;;12.20;99.90;;;;;;6241032;23;20000;-76
2023/05/16 07:12:36;;;;;;;5.28;1.25;;;12.30;99.90;;;;;;6240113;23;20031;-76
2023/05/16 07:15:02;;;;;;;8.40;1.23;;;12.40;99.90;;;;;;6213947;23;20010;-76
2023/05/16 07:17:27;;;;;;;6.93;1.05;;;12.50;99.90;;;;;;6240275;23;20024;-76
2023/05/16 07:19:53;;;;;;;6.35;0.93;;;12.50;99.90;;;;;;6214042;23;20142;-77
2023/05/16 07:22:18;;;;;;;4.57;0.80;;;12.50;99.90;;;;;;6240868;23;20008;-77
2023/05/16 07:24:44;;;;;;;6.10;1.00;;;12.50;99.90;;;;;;6215001;23;20079;-75
2023/05/16 07:27:09;;;;;;;4.85;0.95;;;12.50;99.90;;;;;;6241818;23;20490;-77
2023/05/16 07:29:36;;;;;;;4.60;0.75;;;12.70;99.50;;;;;;6213211;23;20008;-77
2023/05/16 07:32:02;;;;;;;4.35;1.52;;;12.80;98.40;;;;;;6213394;23;20000;-77
2023/05/16 07:34:27;;;;;;;3.70;0.57;;;12.90;98.50;;;;;;6239822;23;20039;-77
2023/05/16 07:36:53;;;;;;;3.63;0.68;;;13.00;97.90;;;;;;6214098;23;20004;-77
2023/05/16 07:39:19;;;;;;;4.38;0.82;;;13.10;97.60;;;;;;6241379;23;20070;-77
2023/05/16 07:41:44;;;;;;;5.55;1.02;;;13.10;96.60;;;;;;6216467;23;20004;-77
2023/05/16 07:44:10;;;;;;;7.30;0.85;;;13.20;95.80;;;;;;6240086;23;20004;-76
2023/05/16 07:46:36;;;;;;;3.03;0.55;;;13.20;95.60;;;;;;6240737;23;20058;-76
2023/05/16 07:49:01;;;;;;;3.60;1.30;;;13.20;95.10;;;;;;6242922;23;20004;-77
2023/05/16 07:51:27;;;;;;;5.65;0.93;;;13.10;95.20;;;;;;6242210;23;20031;-78
2023/05/16 07:53:53;;;;;;;7.22;0.90;;;13.10;95.40;;;;;;6215462;23;20047;-77
2023/05/16 07:56:18;;;;;;;4.35;0.60;;;13.10;94.70;;;;;;6215449;23;20039;-78
2023/05/16 07:58:44;;;;;;;4.57;0.90;;;13.10;94.60;;;;;;6243037;23;20483;-77
2023/05/16 08:01:10;;;;;;;6.22;0.80;;;13.20;94.80;;;;;;6215092;23;20010;-77
2023/05/16 08:03:36;;;;;;;6.18;0.90;;;13.40;95.00;;;;;;6215921;23;20000;-78
2023/05/16 08:06:01;;;;;;;6.28;0.90;;;13.50;94.60;;;;;;6216053;23;20008;-78
2023/05/16 08:08:27;;;;;;;4.78;0.70;;;13.60;94.40;;;;;;6215650;23;20362;-78
2023/05/16 08:10:52;;;;;;;6.07;1.10;;;13.60;94.40;;;;;;6215959;23;20554;-81
2023/05/16 08:13:18;;;;;;;6.90;0.80;;;13.60;94.80;;;;;;6215581;23;20368;-79
2023/05/16 08:15:44;;;;;;;4.32;0.80;;;13.40;95.60;;;;;;6242311;23;20434;-79
2023/05/16 08:18:13;;;;;;;7.10;0.70;;;13.30;95.70;;;;;;6242570;23;20023;-79
2023/05/16 08:20:40;;;;;;;4.13;0.60;;;13.20;95.60;;;;;;6215570;23;20429;-78
2023/05/16 08:23:06;;;;;;;3.80;0.60;;;13.10;95.60;;;;;;6216029;23;20008;-79
2023/05/16 08:25:32;;;;;;;6.45;0.60;;;13.00;95.60;;;;;;6215267;23;20016;-79
2023/05/16 08:27:57;;;;;;;5.88;0.80;;;12.90;95.60;;;;;;6220636;23;20095;-79
2023/05/16 08:30:25;;;;;;;4.38;0.60;;;13.00;95.90;;;;;;6214783;23;20054;-79
2023/05/16 08:32:50;;;;;;;3.92;0.50;;;13.00;95.90;;;;;;6216178;23;20082;-79
2023/05/16 08:35:16;;;;;;;3.30;0.55;;;13.10;96.10;;;;;;6242157;23;20366;-79
2023/05/16 08:37:41;;;;;;;4.15;0.50;;;13.10;96.20;;;;;;6242784;23;20390;-79
2023/05/16 08:40:09;;;;;;;4.65;0.63;;;13.10;96.10;;;;;;6242473;23;20003;-79
2023/05/16 08:42:36;;;;;;;2.95;0.40;;;13.00;96.40;;;;;;6242324;23;20000;-78
2023/05/16 08:45:02;;;;;;;1.50;0.40;;;13.00;96.00;;;;;;6215002;23;20155;-77
2023/05/16 08:47:30;;;;;;;3.22;0.30;;;12.90;95.80;;;;;;6215610;23;20020;-79
2023/05/16 08:49:57;;;;;;;3.53;0.20;;;13.00;95.60;;;;;;6215194;23;20479;-79
2023/05/16 08:52:28;;;;;;;3.90;0.50;;;13.00;95.10;;;;;;6242166;23;20267;-79
2023/05/16 08:54:56;;;;;;;1.90;0.30;;;13.00;94.50;;;;;;6215566;23;20000;-78
2023/05/16 08:57:22;;;;;;;5.07;0.77;;;13.00;94.30;;;;;;6241036;23;19996;-77
2023/05/16 08:59:48;;;;;;;1.30;0.30;;;12.90;94.00;;;;;;6239760;23;20054;-79
2023/05/16 09:02:14;;;;;;;4.05;0.30;;;12.90;94.00;;;;;;6214872;23;20000;-80
2023/05/16 09:04:41;;;;;;;1.83;0.47;;;12.90;94.20;;;;;;6214641;23;20440;-79
2023/05/16 09:07:06;;;;;;;2.75;0.52;;;13.10;94.00;;;;;;6242248;23;20069;-78
2023/05/16 09:09:32;;;;;;;1.40;0.30;;;13.10;94.00;;;;;;6241724;23;20012;-78
2023/05/16 09:11:58;;;;;;;3.70;0.85;;;13.20;93.80;;;;;;6215353;23;20004;-78
2023/05/16 09:14:23;;;;;;;5.53;0.95;;;13.40;93.80;;;;;;6214175;23;20054;-80
2023/05/16 09:17:06;;;;;;;4.35;0.57;;;13.60;93.30;;;;;;6215379;23;20027;-79
2023/05/16 09:19:39;;;;;;;5.25;0.45;;;13.70;92.70;;;;;;6214714;23;20091;-79
2023/05/16 09:22:08;;;;;;;6.13;0.82;;;13.90;92.70;;;;;;6215133;23;20004;-79
2023/05/16 09:24:38;;;;;;;7.68;0.88;;;14.10;92.90;;;;;;6241288;23;20091;-79
2023/05/16 09:27:22;;;;;;;3.47;0.50;;;14.40;92.90;;;;;;6214936;23;20012;-79
2023/05/16 09:29:50;;;;;;;6.32;0.70;;;14.70;92.20;;;;;;6242326;23;20050;-80
2023/05/16 09:32:17;;;;;;;3.40;0.65;;;14.70;91.10;;;;;;6241804;23;20055;-78
2023/05/16 09:34:44;;;;;;;3.97;0.50;;;14.70;90.70;;;;;;6241831;23;20039;-79
2023/05/16 09:37:11;;;;;;;6.53;0.60;;;14.80;90.60;;;;;;6242011;23;20000;-78
2023/05/16 09:39:40;;;;;;;2.47;0.40;;;14.80;90.80;;;;;;6215013;23;20038;-78
2023/05/16 09:42:10;;;;;;;6.13;0.80;;;14.80;90.40;;;;;;6214548;23;20279;-78
2023/05/16 09:44:36;;;;;;;5.15;0.50;;;14.80;90.20;;;;;;6214659;23;20008;-78
2023/05/16 09:47:02;;;;;;;4.32;0.65;;;14.90;88.90;;;;;;6241992;23;20014;-79
2023/05/16 09:49:27;;;;;;;2.88;0.40;;;14.90;88.40;;;;;;6214683;23;20079;-79
2023/05/16 09:51:54;;;;;;;3.05;0.55;;;15.10;88.40;;;;;;6214789;23;20012;-78
2023/05/16 09:54:33;;;;;;;5.78;0.68;;;15.10;87.40;;;;;;6213520;23;20008;-77
2023/05/16 09:56:59;;;;;;;4.70;1.10;;;15.00;86.10;;;;;;6240848;23;20000;-77
2023/05/16 09:59:27;;;;;;;3.88;0.70;;;14.80;87.10;;;;;;6241492;23;20071;-78
2023/05/16 10:01:56;;;;;;;3.53;0.60;;;14.70;86.10;;;;;;6242012;23;19996;-79
2023/05/16 10:04:21;;;;;;;3.80;0.77;;;14.70;86.50;;;;;;6242403;23;20030;-78
2023/05/16 10:06:50;;;;;;;5.25;1.02;;;14.80;85.60;;;;;;6241584;23;20337;-78
2023/05/16 10:09:17;;;;;;;3.38;1.30;;;15.00;83.10;;;;;;6240651;23;20077;-78
2023/05/16 10:11:45;;;;;;;3.70;0.63;;;15.00;81.80;;;;;;6238932;23;20030;-79
2023/05/16 10:14:11;;;;;;;3.92;0.75;;;15.20;82.70;;;;;;6213461;23;20100;-78
2023/05/16 10:16:41;;;;;;;1.90;0.80;;;15.40;82.70;;;;;;6240081;23;20004;-79
2023/05/16 10:19:07;;;;;;;2.70;0.82;;;15.60;81.80;;;;;;6240077;23;19996;-78
2023/05/16 10:21:34;;;;;;;3.38;0.70;;;15.70;82.40;;;;;;6212947;23;20083;-78
2023/05/16 10:24:05;;;;;;;3.25;0.73;;;15.60;80.70;;;;;;6212482;23;20009;-77
2023/05/16 10:26:32;;;;;;;3.20;0.60;;;15.50;80.10;;;;;;6239150;23;20070;-78
2023/05/16 10:28:58;;;;;;;4.90;0.88;;;15.30;79.00;;;;;;6239838;23;20463;-79
2023/05/16 10:31:24;;;;;;;6.32;0.65;;;15.20;78.40;;;;;;6239222;23;20012;-79
2023/05/16 10:33:50;;;;;;;2.45;0.43;;;15.20;79.00;;;;;;6239907;23;20472;-78
2023/05/16 10:36:17;;;;;;;3.22;0.40;;;15.20;79.40;;;;;;6239601;23;20304;-79
2023/05/16 10:38:45;;;;;;;1.63;0.52;;;15.40;79.60;;;;;;6212855;23;20004;-78
2023/05/16 10:41:11;;;;;;;5.75;1.33;;;15.60;78.90;;;;;;6239070;23;20027;-78
2023/05/16 10:43:36;;;;;;;3.88;0.82;;;15.60;79.30;;;;;;6215488;23;20058;-78
2023/05/16 10:46:06;;;;;;;4.07;0.93;;;15.60;78.30;;;;;;6243281;23;20000;-79
2023/05/16 10:48:34;;;;;;;5.25;0.90;;;15.60;78.60;;;;;;6214151;23;20004;-78
2023/05/16 10:51:01;;;;;;;1.92;0.45;;;15.60;78.90;;;;;;6240170;23;20012;-78
2023/05/16 10:53:31;;;;;;;4.05;0.70;;;15.40;78.90;;;;;;6239381;23;20552;-78
2023/05/16 10:56:00;;;;;;;5.10;0.52;;;15.40;79.50;;;;;;6212231;23;20326;-77
2023/05/16 10:58:38;;;;;;;4.47;0.98;;;15.50;79.50;;;;;;6213462;23;20154;-78
2023/05/16 11:01:28;;;;;;;2.17;0.52;;;15.70;79.90;;;;;;6241942;23;20000;-78
2023/05/16 11:04:03;;;;;;;1.90;0.50;;;15.80;79.10;;;;;;6214630;23;20004;-78
2023/05/16 11:06:33;;;;;;;4.50;0.63;;;16.10;76.70;;;;;;6239779;23;20008;-77
2023/05/16 11:09:10;;;;;;;2.83;0.70;;;16.20;74.80;;;;;;6213591;23;20159;-76
2023/05/16 11:11:41;;;;;;;2.78;0.95;;;16.20;73.60;;;;;;6241249;23;20341;-77
2023/05/16 11:14:08;;;;;;;3.45;0.63;;;16.10;74.30;;;;;;6214216;23;20008;-78
2023/05/16 11:16:35;;;;;;;2.95;0.50;;;16.00;74.30;;;;;;6240896;23;20008;-77
2023/05/16 11:19:07;;;;;;;11.10;1.17;;;15.80;75.40;;;;;;6214639;23;20000;-78
2023/05/16 11:22:10;;;;;;;4.70;0.85;;;15.60;75.70;;;;;;6213844;23;20000;-78
2023/05/16 11:24:47;;;;;;;4.07;0.63;;;15.70;76.80;;;;;;6213385;23;20016;-77
2023/05/16 11:27:18;;;;;;;3.03;0.90;;;15.90;76.90;;;;;;6213765;23;20086;-76
2023/05/16 11:29:44;;;;;;;6.05;1.05;;;16.10;76.10;;;;;;6246128;23;20008;-77
2023/05/16 11:32:09;;;;;;;3.28;0.93;;;16.30;75.20;;;;;;6214766;23;19992;-79
2023/05/16 11:34:38;;;;;;;5.38;1.20;;;16.30;73.80;;;;;;6240713;23;20150;-78
2023/05/16 11:37:05;;;;;;;4.88;0.80;;;16.40;74.00;;;;;;6214205;23;20019;-77
2023/05/16 11:39:31;;;;;;;6.47;0.90;;;16.40;73.70;;;;;;6241287;23;20422;-77
2023/05/16 11:41:57;;;;;;;5.03;0.80;;;16.30;73.60;;;;;;6240997;23;20000;-78
2023/05/16 11:44:22;;;;;;;2.13;0.75;;;16.30;74.10;;;;;;6213849;23;20008;-77
2023/05/16 11:46:48;;;;;;;5.00;0.70;;;16.40;73.30;;;;;;6241159;23;20012;-77
2023/05/16 11:49:14;;;;;;;5.35;0.70;;;16.30;72.00;;;;;;6240422;23;20120;-77
2023/05/16 11:51:42;;;;;;;2.50;0.80;;;16.30;72.00;;;;;;6240317;23;20053;-77
2023/05/16 11:54:09;;;;;;;4.07;0.85;;;16.20;72.80;;;;;;6240780;23;20415;-77
2023/05/16 11:56:35;;;;;;;2.25;0.70;;;16.10;73.20;;;;;;6213749;23;20345;-77
2023/05/16 11:59:01;;;;;;;3.05;0.70;;;16.20;73.20;;;;;;6241134;23;20085;-78
2023/05/16 12:01:34;;;;;;;3.75;1.30;;;16.10;73.00;;;;;;6240345;23;20040;-77
2023/05/16 12:04:00;;;;;;;5.57;0.60;;;16.20;73.10;;;;;;6213898;23;20299;-78
2023/05/16 12:06:28;;;;;;;3.25;0.50;;;16.20;72.90;;;;;;6239815;23;20084;-78
2023/05/16 12:08:53;;;;;;;4.07;1.13;;;16.40;73.40;;;;;;6213985;23;20336;-78
2023/05/16 12:11:20;;;;;;;2.17;0.80;;;16.50;73.50;;;;;;6240510;23;20071;-77
2023/05/16 12:13:46;;;;;;;3.42;0.77;;;16.60;73.10;;;;;;6214266;23;20090;-78
2023/05/16 12:16:12;;;;;;;3.58;0.80;;;16.70;71.40;;;;;;6213889;23;20035;-77
2023/05/16 12:18:38;;;;;;;4.13;0.80;;;16.70;71.80;;;;;;6241283;23;20007;-78
2023/05/16 12:21:04;;;;;;;4.25;0.90;;;16.70;71.50;;;;;;6240010;23;20511;-77
2023/05/16 12:23:32;;;;;;;4.55;0.85;;;16.70;71.10;;;;;;6213720;23;20283;-77
2023/05/16 12:26:00;;;;;;;5.97;1.25;;;16.70;71.80;;;;;;6240760;23;20442;-77
2023/05/16 12:28:30;;;;;;;2.63;0.70;;;16.80;72.50;;;;;;6213419;23;20070;-77
2023/05/16 12:30:56;;;;;;;2.45;0.80;;;16.90;72.20;;;;;;6213584;23;20481;-77
2023/05/16 12:33:22;;;;;;;3.33;0.70;;;17.00;70.80;;;;;;6239045;23;20027;-77
2023/05/16 12:35:47;;;;;;;4.13;0.70;;;17.10;70.20;;;;;;6240602;23;20331;-78
2023/05/16 12:38:14;;;;;;;4.22;0.70;;;17.10;70.10;;;;;;6240534;23;20004;-77
2023/05/16 12:40:42;;;;;;;6.57;0.90;;;17.20;70.50;;;;;;6213423;23;20011;-78
2023/05/16 12:43:14;;;;;;;4.53;0.57;;;17.10;70.10;;;;;;6214028;23;20000;-77
2023/05/16 12:45:41;;;;;;;5.07;0.82;;;16.90;70.70;;;;;;6240942;23;20437;-78